Watson, OK (74963)

5:45 PM CDT on July 26, 2016 (GMT -0500)
Helms Sevier County | | Change Station

Elev 354 ft 34.05 °N, 94.40 °W | Updated 52 minutes ago

Clear
Clear
95 °F
Feels Like 102 °F
N
9
Wind Variable Wind from South

Today
High -- | Low -- °F
--% Chance of Precip.
Yesterday
High -- | Low -- °F
Precip. -- in
Pressure 29.84 in
Visibility 10.0 miles
Clouds Clear
Heat Index 102 °F
Dew Point 71 °F
Humidity 46%
Rainfall 0.00 in
Snow Depth Not available.
6:25 AM 8:24 PM
Waning Gibbous, 50% visible
METAR KDEQ 262153Z AUTO 18008KT 10SM CLR 35/22 A2986 RMK AO2 SLP103 T03500217
Pressure 29.84 in
Visibility 10.0 miles
Clouds Clear
Heat Index 102 °F
Dew Point 71 °F
Humidity 46%
Rainfall 0.00 in
Snow Depth Not available.
6:25 AM 8:24 PM
Waning Gibbous, 50% visible
METAR KDEQ 262153Z AUTO 18008KT 10SM CLR 35/22 A2986 RMK AO2 SLP103 T03500217

10-Day Weather Forecast

Almanac

Astronomy

Jul. 26, 2016 Rise Set
Actual Time
Civil Twilight
Nautical Twilight
Astronomical Twilight
Moon
Length of Visible Light
Length of Day
Tomorrow will be .
, % of the Moon is Illuminated

Today's Extremes

State Highs State Lows

Community

WunderPhotos

Upload Photos

1,927,728 photos uploaded!

WunderBlog® & News

Nearby

Air Quality

  Air Quality AQ Index Pollutant
Not available.

Snow Depth

Station Depth Elevation

Earthquake Activity

City Distance Mag. Time & Date
Minimum magnitude displayed is 2.5.

Coastal Water Temperatures

Place Temperature

Stations

Nearby Weather Stations

Station Location Temp. Windchill Dew Point Humidity Wind Precip. Elev Updated Type
                   

Watches & Warnings

There are currently no watches in effect.